Latest Weather Observations for Coonamble

IDN60801

Issued at 4:05 pm EDT Thursday 23 October 2014 (issued every 30 minutes, with the page automatically refreshed every 10 minutes)

About weather observations | Map of weather stations | Latest weather observations for NSW | Other Formats
Station Details ID: 051161 Name: COONAMBLE AIRPORT AWS Lat: -30.98 Lon: 148.38 Height: 181.3 m
Data from the previous 72 hours. | See also: Recent months at Coonamble
Date/Time
EDT
Temp
°C
App
Temp
°C
Dew
Point
Rel
Hum
%
Delta-T
°C
Wind Press
QNH
hPa
Press
MSL
hPa
Rain
since 9 am
mm
Dir
 
Spd
km/h
Gust
km/h
Spd
kts
Gust
kts
23/04:00pm 33.1 29.6 7.1 20 14.3 WSW 15 26 8 14 1015.2 1014.7 0.0
23/03:30pm 32.7 30.1 6.1 19 14.4 SW 9 15 5 8 1015.5 1015.0 0.0
23/03:00pm 32.6 29.9 7.4 21 13.9 N 11 17 6 9 1016.0 1015.5 0.0
23/02:30pm 32.8 30.9 7.6 21 14.0 WSW 7 13 4 7 1016.5 1016.0 0.0
23/02:00pm 32.1 29.0 9.0 24 13.1 N 15 24 8 13 1017.0 1016.6 0.0
23/01:30pm 31.3 29.0 8.9 25 12.6 N 11 22 6 12 1017.6 1017.1 0.0
23/01:00pm 31.2 28.9 10.5 28 11.9 NNW 13 24 7 13 1018.0 1017.5 0.0
23/12:30pm 30.5 27.8 10.5 29 11.5 N 15 22 8 12 1018.7 1018.2 0.0
23/12:00pm 29.6 26.7 9.7 29 11.2 N 15 22 8 12 1019.3 1018.8 0.0
23/11:30am 29.0 26.7 11.6 34 10.1 NNW 15 20 8 11 1019.7 1019.2 0.0
23/11:00am 28.7 26.6 11.3 34 10.0 N 13 20 7 11 1019.9 1019.4 0.0
23/10:30am 27.4 24.7 11.8 38 9.0 N 17 26 9 14 1019.9 1019.4 0.0
23/10:00am 26.0 23.3 11.7 41 8.2 N 17 22 9 12 1020.1 1019.6 0.0
23/09:30am 24.6 22.2 12.5 46 7.0 NNE 17 22 9 12 1020.0 1019.5 0.0
23/09:00am 23.4 21.1 13.0 52 6.0 NNE 17 26 9 14 1019.8 1019.3 3.8
23/08:30am 22.4 20.8 14.0 59 4.9 NNE 15 22 8 12 1019.8 1019.3 3.8
23/08:00am 20.6 19.5 15.2 71 3.2 NE 15 20 8 11 1019.3 1018.8 3.8
23/07:30am 18.6 17.7 14.9 79 2.2 ENE 13 19 7 10 1018.9 1018.4 3.8
23/07:00am 17.5 16.4 14.2 81 1.9 NE 13 20 7 11 1018.7 1018.2 3.8
23/06:30am 16.9 15.5 13.4 80 2.0 ENE 13 17 7 9 1018.1 1017.6 3.8
23/06:00am 17.6 16.3 13.7 78 2.2 E 13 17 7 9 1017.6 1017.1 3.8
23/05:30am 17.6 16.3 13.7 78 2.2 ESE 13 17 7 9 1017.2 1016.8 3.8
23/05:00am 17.8 17.5 14.3 80 2.0 SE 9 17 5 9 1017.1 1016.7 3.8
23/04:30am 17.7 18.0 14.4 81 1.9 NW 6 9 3 5 1016.9 1016.5 3.8
23/04:00am 18.5 17.9 14.6 78 2.3 NNW 11 13 6 7 1016.9 1016.5 3.8
23/03:30am 18.5 17.7 15.0 80 2.1 NW 13 17 7 9 1017.7 1017.2 3.8
23/03:00am 19.8 17.4 13.7 68 3.5 NNW 19 24 10 13 1018.0 1017.5 3.8
23/02:30am 18.3 15.7 15.9 86 1.4 NW 24 33 13 18 1018.6 1018.1 3.8
23/02:00am 18.5 14.8 15.9 85 1.5 NNW 30 41 16 22 1019.4 1018.9 3.8
23/01:30am 18.5 16.2 16.7 89 1.1 W 24 30 13 16 1020.7 1020.2 2.0
23/01:00am 18.7 15.0 15.9 84 1.7 W 30 39 16 21 1021.3 1020.8 1.0
23/12:30am 20.0 15.5 14.8 72 3.1 WSW 32 41 17 22 1021.4 1020.9 0.0
23/12:02am 25.0 19.9 10.5 40 8.1 WSW 28 63 15 34 1020.4 1019.9 0.0
23/12:00am 25.1 21.2 9.4 37 8.6 W 20 32 11 17 1020.3 1019.8 0.0
 
Date/Time
EDT
Temp
°C
App
Temp
°C
Dew
Point
Rel
Hum
%
Delta-T
°C
Wind Press
QNH
hPa
Press
MSL
hPa
Rain
since 9 am
mm
Dir
 
Spd
km/h
Gust
km/h
Spd
kts
Gust
kts
22/11:30pm 24.2 21.0 8.6 37 8.4 NNE 15 20 8 11 1018.7 1018.2 0.0
22/11:00pm 24.0 21.2 8.4 37 8.4 NNE 13 17 7 9 1018.7 1018.2 0.0
22/10:30pm 23.4 20.9 8.3 38 8.1 NE 11 15 6 8 1018.8 1018.3 0.0
22/10:00pm 23.5 21.0 8.0 37 8.2 NE 11 17 6 9 1018.8 1018.3 0.0
22/09:30pm 23.4 20.7 7.5 36 8.4 NE 11 15 6 8 1018.5 1018.0 0.0
22/09:00pm 23.7 21.0 7.3 35 8.6 NE 11 13 6 7 1018.3 1017.8 0.0
22/08:30pm 25.0 22.4 7.6 33 9.3 NE 11 15 6 8 1018.3 1017.8 0.0
22/08:00pm 25.3 22.6 7.4 32 9.5 NE 11 13 6 7 1018.1 1017.6 0.0
22/07:30pm 27.1 24.6 8.0 30 10.4 NNE 11 15 6 8 1017.8 1017.3 0.0
22/07:00pm 28.3 26.2 8.1 28 11.0 NE 9 15 5 8 1017.6 1017.1 0.0
22/06:30pm 29.8 27.7 8.2 26 11.9 ENE 9 13 5 7 1017.6 1017.1 0.0
22/06:00pm 30.1 27.9 7.9 25 12.2 NE 9 13 5 7 1017.7 1017.2 0.0
22/05:30pm 31.3 29.4 8.9 25 12.6 N 9 13 5 7 1018.0 1017.5 0.0
22/05:00pm 31.2 29.6 8.8 25 12.6 S 7 15 4 8 1018.3 1017.8 0.0
22/04:30pm 30.6 27.5 8.9 26 12.2 N 15 22 8 12 1018.6 1018.1 0.0
22/04:00pm 30.5 28.1 8.8 26 12.1 NW 11 19 6 10 1018.9 1018.4 0.0
22/03:30pm 30.5 26.4 8.8 26 12.2 NE 20 32 11 17 1019.2 1018.7 0.0
22/03:00pm 29.6 26.1 8.6 27 11.6 NNW 17 24 9 13 1019.8 1019.3 0.0
22/02:30pm 29.4 26.0 9.0 28 11.4 NNE 17 22 9 12 1020.2 1019.7 0.0
22/02:00pm 28.9 24.9 9.1 29 11.0 N 20 30 11 16 1020.8 1020.3 0.0
22/01:30pm 28.8 25.2 10.5 32 10.4 NNE 20 24 11 13 1021.3 1020.8 0.0
22/01:00pm 28.0 24.5 10.2 33 10.0 N 19 33 10 18 1021.9 1021.5 0.0
22/12:30pm 26.7 22.4 9.5 34 9.6 NNE 22 32 12 17 1022.5 1022.1 0.0
22/12:00pm 26.2 22.5 10.0 36 9.0 N 20 33 11 18 1023.2 1022.7 0.0
22/11:30am 24.4 19.8 9.6 39 8.1 N 24 30 13 16 1023.7 1023.2 0.0
22/11:00am 23.9 19.3 9.5 40 7.9 NNE 24 43 13 23 1024.3 1023.8 0.0
22/10:30am 23.1 18.4 9.1 41 7.6 N 24 33 13 18 1024.5 1024.0 0.0
22/10:00am 22.2 16.8 9.4 44 6.9 NNE 28 37 15 20 1024.5 1024.0 0.0
22/09:30am 21.1 16.3 9.0 46 6.5 NNE 24 39 13 21 1024.7 1024.2 0.0
22/09:00am 19.8 14.1 8.5 48 5.9 NNE 28 39 15 21 1024.8 1024.3 0.0
22/08:30am 19.4 14.6 9.0 51 5.5 NE 24 35 13 19 1024.7 1024.2 0.0
22/08:00am 17.9 12.9 8.2 53 5.0 ENE 24 33 13 18 1024.5 1024.0 0.0
22/07:30am 16.5 11.9 8.2 58 4.2 ENE 22 30 12 16 1024.4 1023.9 0.0
22/07:00am 15.2 11.6 8.2 63 3.5 ENE 17 22 9 12 1024.1 1023.6 0.0
22/06:30am 14.8 10.8 8.1 64 3.4 E 19 24 10 13 1023.8 1023.3 0.0
22/06:00am 15.1 10.9 8.1 63 3.5 E 20 24 11 13 1023.4 1022.9 0.0
22/05:30am 15.4 11.1 7.9 61 3.8 ENE 20 32 11 17 1023.2 1022.7 0.0
22/05:00am 15.8 11.2 8.1 60 3.9 ENE 22 32 12 17 1022.9 1022.5 0.0
22/04:30am 16.0 11.4 8.0 59 4.1 ENE 22 32 12 17 1022.8 1022.4 0.0
22/04:00am 16.2 11.5 7.9 58 4.2 ENE 22 30 12 16 1023.0 1022.6 0.0
22/03:30am 16.7 11.3 7.9 56 4.5 E 26 35 14 19 1023.0 1022.6 0.0
22/03:00am 17.0 11.9 7.6 54 4.8 E 24 32 13 17 1023.0 1022.6 0.0
22/02:30am 17.3 12.5 7.4 52 5.0 E 22 32 12 17 1023.0 1022.6 0.0
22/02:00am 17.8 12.6 7.2 50 5.3 E 24 33 13 18 1023.2 1022.7 0.0
22/01:30am 18.4 12.9 7.5 49 5.6 E 26 37 14 20 1023.5 1023.0 0.0
22/01:00am 18.9 13.4 7.4 47 5.9 E 26 39 14 21 1023.7 1023.2 0.0
22/12:30am 19.4 15.0 7.5 46 6.1 E 20 30 11 16 1024.1 1023.6 0.0
22/12:00am 20.2 15.0 7.2 43 6.7 E 24 35 13 19 1024.3 1023.8 0.0
 
Date/Time
EDT
Temp
°C
App
Temp
°C
Dew
Point
Rel
Hum
%
Delta-T
°C
Wind Press
QNH
hPa
Press
MSL
hPa
Rain
since 9 am
mm
Dir
 
Spd
km/h
Gust
km/h
Spd
kts
Gust
kts
21/11:30pm 21.0 16.3 7.6 42 7.0 E 22 30 12 16 1024.2 1023.7 0.0
21/11:00pm 21.8 17.4 7.6 40 7.4 E 20 28 11 15 1024.0 1023.5 0.0
21/10:30pm 22.8 17.7 7.8 38 7.9 E 24 33 13 18 1023.9 1023.4 0.0
21/10:00pm 23.6 18.9 7.7 36 8.4 E 22 32 12 17 1023.7 1023.2 0.0
21/09:30pm 24.1 20.3 7.7 35 8.7 E 17 24 9 13 1023.4 1022.9 0.0
21/09:00pm 23.4 19.6 9.0 40 7.8 SSE 19 22 10 12 1023.2 1022.7 0.0
21/08:30pm 22.9 20.7 7.8 38 8.0 E 9 11 5 6 1022.6 1022.2 0.0
21/08:00pm 25.0 22.7 7.6 33 9.2 ESE 9 13 5 7 1022.3 1021.9 0.0
21/07:30pm 26.2 24.0 7.7 31 9.9 ESE 9 11 5 6 1022.1 1021.7 0.0
21/07:00pm 28.0 26.2 7.8 28 10.9 E 7 9 4 5 1021.9 1021.5 0.0
21/06:30pm 29.1 27.3 7.1 25 11.9 E 6 9 3 5 1021.8 1021.4 0.0
21/06:00pm 29.6 27.8 8.1 26 11.8 NNE 7 11 4 6 1021.7 1021.3 0.0
21/05:30pm 30.5 29.0 8.3 25 12.3 WNW 6 13 3 7 1021.8 1021.4 0.0
21/05:00pm 30.0 28.5 8.4 26 11.9 N 6 9 3 5 1021.9 1021.5 0.0
21/04:30pm 29.7 28.1 8.7 27 11.7 ENE 7 17 4 9 1022.0 1021.6 0.0
21/04:00pm 29.5 27.3 8.0 26 11.8 E 9 15 5 8 1022.2 1021.8 0.0
21/03:30pm 29.3 26.8 8.4 27 11.6 NE 11 20 6 11 1022.6 1022.2 0.0
21/03:00pm 29.6 27.0 9.2 28 11.4 NE 13 24 7 13 1023.0 1022.6 0.0
21/02:30pm 28.5 25.9 9.2 30 10.8 NNE 13 24 7 13 1023.7 1023.2 0.0
21/02:00pm 27.6 24.0 8.5 30 10.4 N 17 24 9 13 1024.2 1023.7 0.0
21/01:30pm 27.8 25.5 9.1 31 10.4 N 11 20 6 11 1024.8 1024.3 0.0
21/01:00pm 27.8 24.1 10.1 33 9.9 ENE 20 28 11 15 1025.4 1024.9 0.0
21/12:30pm 26.4 22.0 8.8 33 9.7 NNE 22 32 12 17 1026.0 1025.5 0.0
21/12:00pm 25.7 22.2 8.7 34 9.2 NNE 17 28 9 15 1026.3 1025.9 0.0
21/11:30am 25.4 21.6 9.7 37 8.7 NNE 20 32 11 17 1026.7 1026.3 0.0
21/11:00am 24.0 20.0 9.2 39 8.0 NNE 20 32 11 17 1027.1 1026.7 0.0
21/10:30am 23.3 19.5 9.7 42 7.5 NNE 20 32 11 17 1027.4 1027.0 0.0
21/10:00am 22.4 17.9 9.9 45 6.8 NE 24 35 13 19 1027.4 1027.0 0.0
21/09:30am 21.7 17.2 9.9 47 6.4 ENE 24 32 13 17 1027.4 1027.0 0.0
21/09:00am 20.7 15.9 10.2 51 5.7 ENE 26 33 14 18 1027.3 1026.9 0.0
21/08:30am 19.2 13.9 9.9 55 5.0 E 28 39 15 21 1027.1 1026.7 0.0
21/08:00am 18.4 13.2 10.3 59 4.3 E 28 41 15 22 1026.8 1026.4 0.0
21/07:30am 17.4 13.8 10.5 64 3.7 E 20 28 11 15 1026.5 1026.1 0.0
21/07:00am 16.3 12.6 10.2 67 3.2 ENE 20 30 11 16 1026.0 1025.5 0.0
21/06:30am 15.9 11.8 10.2 69 3.0 E 22 32 12 17 1025.4 1024.9 0.0
21/06:00am 16.1 12.0 10.2 68 3.1 ENE 22 32 12 17 1025.0 1024.5 0.0
21/05:30am 16.3 12.6 10.2 67 3.2 E 20 32 11 17 1024.6 1024.1 0.0
21/05:00am 16.6 12.5 10.0 65 3.5 E 22 30 12 16 1024.4 1023.9 0.0
21/04:30am 17.0 12.1 9.9 63 3.8 E 26 37 14 20 1024.0 1023.5 0.0
21/04:00am 17.5 12.2 9.9 61 4.0 ENE 28 39 15 21 1023.8 1023.3 0.0
21/03:30am 17.7 12.8 9.8 60 4.2 E 26 35 14 19 1023.7 1023.2 0.0
21/03:00am 18.1 12.8 9.7 58 4.5 E 28 37 15 20 1023.6 1023.1 0.0
21/02:30am 18.5 13.1 9.6 56 4.7 E 28 41 15 22 1023.7 1023.2 0.0
21/02:00am 19.0 13.2 9.5 54 5.0 ENE 30 41 16 22 1023.7 1023.2 0.0
21/01:30am 19.3 14.3 9.5 53 5.2 ENE 26 37 14 20 1023.3 1022.8 0.0
21/01:00am 19.7 14.2 9.3 51 5.5 E 28 39 15 21 1023.5 1023.0 0.0
21/12:30am 20.2 15.0 8.8 48 6.0 E 26 39 14 21 1023.7 1023.2 0.0
21/12:00am 20.7 15.7 8.0 44 6.6 E 24 35 13 19 1023.9 1023.4 0.0
 
Date/Time
EDT
Temp
°C
App
Temp
°C
Dew
Point
Rel
Hum
%
Delta-T
°C
Wind Press
QNH
hPa
Press
MSL
hPa
Rain
since 9 am
mm
Dir
 
Spd
km/h
Gust
km/h
Spd
kts
Gust
kts
20/11:30pm 21.2 16.7 7.1 40 7.3 E 20 28 11 15 1023.9 1023.4 0.0
20/11:00pm 22.3 17.3 6.5 36 8.1 E 22 32 12 17 1023.8 1023.3 0.0
20/10:30pm 23.3 17.7 7.0 35 8.5 ENE 26 35 14 19 1023.5 1023.0 0.0
20/10:00pm 24.4 19.8 8.0 35 8.7 E 22 32 12 17 1023.0 1022.6 0.0
20/09:30pm 25.6 21.8 7.7 32 9.6 E 17 22 9 12 1022.6 1022.2 0.0
20/09:00pm 26.2 22.8 7.7 31 9.9 E 15 22 8 12 1022.0 1021.6 0.0
20/08:30pm 27.3 23.9 7.7 29 10.6 E 15 26 8 14 1021.6 1021.2 0.0
20/08:00pm 28.4 23.3 7.6 27 11.3 ESE 24 35 13 19 1020.9 1020.4 0.0
20/07:30pm 27.8 25.0 2.1 19 12.6 SSW 6 9 3 5 1020.3 1019.8 0.0
20/07:00pm 29.9 26.4 1.4 16 14.0 SSW 9 9 5 5 1020.0 1019.5 0.0
20/06:30pm 31.6 29.0 0.9 14 15.2 S 4 9 2 5 1019.9 1019.4 0.0
20/06:00pm 32.4 29.2 0.5 13 15.7 SSE 7 11 4 6 1019.9 1019.4 0.0
20/05:30pm 32.5 29.5 0.6 13 15.8 W 6 11 3 6 1019.9 1019.4 0.0
20/05:00pm 32.1 29.0 0.2 13 15.6 S 6 11 3 6 1020.0 1019.5 0.0
20/04:30pm 33.4 29.3 0.1 12 16.4 S 11 19 6 10 1020.1 1019.6 0.0

Other Formats:

Comma delimited format used in spreadsheet applications
http://www.bom.gov.au/fwo/IDN60801/IDN60801.95718.axf

JavaScript Object Notation format (JSON) in row-major order
http://www.bom.gov.au/fwo/IDN60801/IDN60801.95718.json